createdAt,value
2018-10-16T00:03:16.155Z,15.00
2018-10-16T00:07:24.531Z,15.00
2018-10-16T00:11:32.832Z,15.00
2018-10-16T00:15:41.329Z,14.90
2018-10-16T00:19:49.980Z,15.10
2018-10-16T00:23:58.282Z,14.90
2018-10-16T00:28:07.014Z,14.90
2018-10-16T00:32:15.352Z,14.80
2018-10-16T00:36:24.009Z,14.70
2018-10-16T00:40:32.334Z,14.60
2018-10-16T00:44:40.825Z,14.70
2018-10-16T00:48:49.327Z,14.60
2018-10-16T00:52:57.814Z,14.60
2018-10-16T00:57:06.150Z,14.60
2018-10-16T01:01:16.225Z,14.60
2018-10-16T01:05:24.726Z,14.60
2018-10-16T01:09:33.024Z,14.60
2018-10-16T01:13:41.472Z,14.60
2018-10-16T01:17:49.955Z,14.50
2018-10-16T01:21:58.454Z,14.50
2018-10-16T01:26:07.048Z,14.60
2018-10-16T01:30:15.332Z,14.50
2018-10-16T01:34:23.921Z,14.50
2018-10-16T01:38:32.213Z,14.50
2018-10-16T01:42:40.608Z,14.40
2018-10-16T01:50:57.275Z,14.40
2018-10-16T01:55:05.594Z,14.50
2018-10-16T01:59:13.909Z,14.50
2018-10-16T02:03:22.508Z,14.40
2018-10-16T02:07:30.797Z,14.30
2018-10-16T02:11:39.425Z,14.30
2018-10-16T02:15:47.760Z,14.30
2018-10-16T02:24:04.275Z,14.30
2018-10-16T02:28:12.619Z,14.20
2018-10-16T02:32:21.380Z,14.20
2018-10-16T02:36:29.696Z,14.20
2018-10-16T02:40:38.038Z,14.10
2018-10-16T02:44:46.327Z,14.20
2018-10-16T02:48:54.828Z,14.10
2018-10-16T02:53:03.108Z,14.20
2018-10-16T02:57:11.967Z,14.20
2018-10-16T03:01:20.645Z,14.30
2018-10-16T03:05:29.037Z,14.30
2018-10-16T03:09:37.398Z,14.30
2018-10-16T03:13:45.719Z,14.30
2018-10-16T03:17:54.278Z,14.40
2018-10-16T03:22:02.616Z,14.40
2018-10-16T03:26:11.143Z,14.40
2018-10-16T03:30:19.404Z,14.30
2018-10-16T03:34:28.165Z,14.30
2018-10-16T03:38:37.340Z,14.30
2018-10-16T03:42:45.785Z,14.30
2018-10-16T03:46:54.068Z,14.30
2018-10-16T03:51:02.495Z,14.40
2018-10-16T03:55:11.133Z,14.40
2018-10-16T03:59:19.407Z,14.50
2018-10-16T04:03:27.753Z,14.30
2018-10-16T04:07:36.689Z,14.20
2018-10-16T04:11:45.012Z,14.30
2018-10-16T04:15:53.288Z,14.30
2018-10-16T04:20:01.580Z,14.30
2018-10-16T04:24:10.150Z,14.40
2018-10-16T04:28:18.464Z,14.30
2018-10-16T04:32:26.892Z,14.20
2018-10-16T04:36:35.518Z,14.20
2018-10-16T04:40:44.016Z,14.10
2018-10-16T04:44:52.346Z,14.10
2018-10-16T04:49:00.599Z,14.20
2018-10-16T04:53:09.360Z,14.20
2018-10-16T04:57:17.646Z,14.10
2018-10-16T05:01:26.195Z,14.10
2018-10-16T05:05:34.637Z,14.10
2018-10-16T05:09:43.109Z,14.10
2018-10-16T05:13:51.381Z,14.10
2018-10-16T05:17:59.727Z,14.00
2018-10-16T05:22:08.633Z,14.00
2018-10-16T05:26:16.926Z,14.00
2018-10-16T05:30:25.624Z,13.90
2018-10-16T05:34:34.159Z,13.90
2018-10-16T05:42:51.464Z,13.80
2018-10-16T05:46:59.866Z,13.90
2018-10-16T05:51:08.489Z,13.90
2018-10-16T05:55:16.744Z,13.80
2018-10-16T05:59:25.094Z,13.90
2018-10-16T06:03:33.431Z,13.80
2018-10-16T06:07:42.920Z,13.80
2018-10-16T06:11:51.243Z,13.70
2018-10-16T06:15:59.558Z,13.70
2018-10-16T06:20:10.647Z,13.70
2018-10-16T06:24:19.040Z,13.70
2018-10-16T06:28:28.264Z,13.70
2018-10-16T06:32:37.205Z,13.70
2018-10-16T06:36:45.517Z,13.70
2018-10-16T06:40:53.963Z,13.60
2018-10-16T06:45:02.039Z,13.60
2018-10-16T06:49:10.646Z,13.70
2018-10-16T06:53:18.944Z,13.70
2018-10-16T06:57:27.453Z,13.70
2018-10-16T07:01:36.940Z,13.80
2018-10-16T07:05:45.245Z,13.80
2018-10-16T07:09:53.552Z,13.80
2018-10-16T07:14:02.548Z,13.90
2018-10-16T07:18:11.109Z,14.00
2018-10-16T07:22:19.376Z,14.10
2018-10-16T07:26:27.777Z,14.20
2018-10-16T07:30:36.488Z,14.40
2018-10-16T07:34:44.826Z,14.60
2018-10-16T07:38:53.181Z,14.80
2018-10-16T07:43:01.466Z,14.80
2018-10-16T07:47:10.090Z,15.00
2018-10-16T07:51:18.408Z,15.30
2018-10-16T07:55:27.085Z,15.50
2018-10-16T07:59:35.802Z,15.40
2018-10-16T08:03:44.143Z,15.60
2018-10-16T08:07:52.463Z,15.60
2018-10-16T08:12:00.791Z,15.80
2018-10-16T08:16:09.977Z,15.80
2018-10-16T08:20:18.433Z,15.90
2018-10-16T08:24:26.937Z,16.10
2018-10-16T08:28:36.012Z,16.20
2018-10-16T08:32:44.405Z,16.30
2018-10-16T08:36:52.766Z,16.30
2018-10-16T08:41:01.064Z,16.50
2018-10-16T08:45:21.236Z,16.60
2018-10-16T08:49:40.713Z,16.70
2018-10-16T08:53:48.989Z,16.80
2018-10-16T08:57:57.444Z,17.10
2018-10-16T09:02:06.832Z,17.20
2018-10-16T09:06:15.228Z,17.30
2018-10-16T09:10:23.580Z,17.70
2018-10-16T09:14:31.964Z,17.90
2018-10-16T09:18:40.940Z,18.10
2018-10-16T09:22:49.246Z,18.30
2018-10-16T09:26:57.753Z,18.50
2018-10-16T09:31:09.929Z,18.60
2018-10-16T09:35:18.425Z,19.10
2018-10-16T09:39:27.007Z,19.30
2018-10-16T09:43:35.400Z,19.40
2018-10-16T09:47:44.400Z,19.50
2018-10-16T09:51:52.824Z,19.70
2018-10-16T09:56:01.165Z,19.90
2018-10-16T10:00:16.074Z,19.90
2018-10-16T10:04:24.374Z,20.10
2018-10-16T10:08:32.640Z,20.10
2018-10-16T10:12:41.228Z,20.30
2018-10-16T10:16:49.505Z,20.20
2018-10-16T10:20:58.060Z,20.20
2018-10-16T10:25:06.853Z,20.10
2018-10-16T10:29:15.179Z,20.10
2018-10-16T10:33:23.448Z,20.10
2018-10-16T10:37:31.865Z,20.10
2018-10-16T10:41:40.861Z,20.10
2018-10-16T10:45:49.140Z,20.10
2018-10-16T10:49:57.756Z,20.10
2018-10-16T10:54:06.460Z,20.10
2018-10-16T10:58:14.988Z,20.40
2018-10-16T11:02:23.307Z,20.70
2018-10-16T11:06:31.692Z,21.40
2018-10-16T11:10:40.435Z,21.50
2018-10-16T11:14:49.246Z,21.70
2018-10-16T11:18:57.709Z,21.60
2018-10-16T11:23:06.436Z,21.50
2018-10-16T11:27:14.972Z,21.70
2018-10-16T11:31:23.169Z,21.90
2018-10-16T11:35:31.524Z,22.30
2018-10-16T11:39:40.129Z,22.50
2018-10-16T11:43:48.424Z,22.70
2018-10-16T11:47:57.069Z,23.30
2018-10-16T11:56:14.223Z,23.30
2018-10-16T12:00:24.730Z,23.00
2018-10-16T12:04:33.144Z,22.80
2018-10-16T12:08:41.735Z,22.50
2018-10-16T12:12:50.139Z,22.40
2018-10-16T12:17:35.978Z,22.40
2018-10-16T12:21:44.390Z,22.30
2018-10-16T12:25:52.684Z,22.20
2018-10-16T12:30:01.037Z,22.20
2018-10-16T12:34:09.633Z,22.40
2018-10-16T12:38:17.914Z,22.50
2018-10-16T12:42:26.232Z,22.70
2018-10-16T12:46:34.500Z,23.30
2018-10-16T12:50:42.944Z,23.30
2018-10-16T12:54:51.218Z,23.50
2018-10-16T12:58:59.787Z,23.70
2018-10-16T13:03:08.695Z,23.60
2018-10-16T13:07:23.315Z,23.70
2018-10-16T13:11:31.624Z,23.70
2018-10-16T13:15:40.452Z,23.80
2018-10-16T13:19:48.784Z,23.80
2018-10-16T13:23:57.330Z,23.90
2018-10-16T13:28:05.751Z,23.90
2018-10-16T13:32:14.219Z,23.90
2018-10-16T13:36:22.450Z,24.00
2018-10-16T13:40:30.801Z,24.00
2018-10-16T13:44:39.427Z,24.20
2018-10-16T13:48:47.748Z,24.30
2018-10-16T13:52:56.082Z,24.30
2018-10-16T13:57:04.348Z,24.20
2018-10-16T14:01:12.836Z,24.20
2018-10-16T14:05:21.134Z,24.30
2018-10-16T14:09:29.656Z,24.30
2018-10-16T14:13:38.354Z,24.20
2018-10-16T14:17:46.704Z,24.00
2018-10-16T14:21:55.026Z,23.80
2018-10-16T14:26:03.404Z,23.70
2018-10-16T14:30:14.040Z,23.60
2018-10-16T14:34:22.405Z,23.50
2018-10-16T14:38:30.754Z,23.30
2018-10-16T14:42:39.389Z,23.20
2018-10-16T14:46:47.660Z,23.10
2018-10-16T14:50:55.960Z,23.00
2018-10-16T14:55:04.949Z,22.90
2018-10-16T14:59:13.460Z,22.70
2018-10-16T15:03:21.867Z,22.60
2018-10-16T15:07:30.273Z,22.50
2018-10-16T15:11:39.988Z,22.30
2018-10-16T15:15:48.324Z,22.20
2018-10-16T15:19:56.752Z,22.00
2018-10-16T15:24:05.324Z,21.90
2018-10-16T15:28:13.673Z,21.80
2018-10-16T15:32:21.905Z,21.70
2018-10-16T15:36:30.469Z,21.50
2018-10-16T15:40:38.826Z,21.40
2018-10-16T15:44:47.461Z,21.30
2018-10-16T15:48:56.353Z,21.10
2018-10-16T15:53:04.696Z,21.00
2018-10-16T15:57:13.044Z,21.00
2018-10-16T16:01:21.296Z,20.80
2018-10-16T16:05:29.951Z,20.70
2018-10-16T16:09:38.288Z,20.50
2018-10-16T16:13:46.721Z,20.40
2018-10-16T16:17:55.130Z,20.30
2018-10-16T16:22:03.721Z,20.30
2018-10-16T16:26:11.987Z,20.20
2018-10-16T16:30:20.376Z,20.10
2018-10-16T16:34:29.080Z,19.90
2018-10-16T16:38:37.474Z,19.80
2018-10-16T16:42:45.873Z,19.70
2018-10-16T16:46:54.300Z,19.50
2018-10-16T16:51:02.765Z,19.40
2018-10-16T16:55:12.760Z,19.40
2018-10-16T16:59:21.037Z,19.30
2018-10-16T17:03:29.853Z,19.10
2018-10-16T17:07:38.153Z,19.10
2018-10-16T17:11:46.456Z,19.00
2018-10-16T17:15:55.042Z,18.90
2018-10-16T17:20:03.478Z,18.90
2018-10-16T17:24:11.713Z,18.80
2018-10-16T17:28:19.996Z,18.70
2018-10-16T17:32:28.481Z,18.70
2018-10-16T17:36:36.804Z,18.60
2018-10-16T17:40:45.201Z,18.50
2018-10-16T17:44:54.444Z,18.50
2018-10-16T17:49:02.856Z,18.50
2018-10-16T17:53:11.133Z,18.50
2018-10-16T17:57:19.468Z,18.50
2018-10-16T18:01:28.064Z,18.50
2018-10-16T18:05:36.437Z,18.50
2018-10-16T18:09:44.800Z,18.40
2018-10-16T18:13:53.162Z,18.30
2018-10-16T18:18:01.760Z,18.30
2018-10-16T18:26:18.288Z,17.90
2018-10-16T18:30:27.049Z,18.00
2018-10-16T18:34:35.345Z,17.90
2018-10-16T18:38:43.708Z,17.90
2018-10-16T18:42:52.006Z,18.20
2018-10-16T18:47:00.596Z,18.10
2018-10-16T18:51:09.403Z,17.90
2018-10-16T18:55:17.665Z,17.80
2018-10-16T18:59:26.152Z,17.70
2018-10-16T19:03:34.839Z,17.70
2018-10-16T19:07:43.236Z,17.60
2018-10-16T19:11:51.721Z,17.50
2018-10-16T19:16:00.173Z,17.50
2018-10-16T19:20:09.971Z,17.40
2018-10-16T19:24:18.223Z,17.30
2018-10-16T19:28:26.708Z,17.40
2018-10-16T19:32:35.148Z,17.30
2018-10-16T19:36:43.438Z,17.30
2018-10-16T19:40:51.711Z,17.10
2018-10-16T19:45:00.109Z,17.10
2018-10-16T19:49:08.429Z,17.00
2018-10-16T19:53:16.980Z,17.00
2018-10-16T19:57:25.832Z,17.00
2018-10-16T20:01:34.689Z,16.90
2018-10-16T20:05:42.964Z,16.80
2018-10-16T20:09:51.715Z,16.80
2018-10-16T20:14:00.497Z,16.90
2018-10-16T20:18:08.757Z,16.70
2018-10-16T20:22:17.201Z,16.70
2018-10-16T20:26:25.853Z,16.60
2018-10-16T20:30:34.181Z,16.50
2018-10-16T20:34:42.554Z,16.40
2018-10-16T20:38:50.856Z,16.50
2018-10-16T20:42:59.342Z,16.40
2018-10-16T20:47:07.629Z,16.40
2018-10-16T20:51:16.128Z,16.40
2018-10-16T20:55:25.162Z,16.40
2018-10-16T20:59:33.699Z,16.30
2018-10-16T21:03:42.053Z,16.20
2018-10-16T21:07:50.425Z,16.10
2018-10-16T21:11:58.932Z,16.00
2018-10-16T21:16:07.245Z,15.90
2018-10-16T21:20:15.688Z,16.00
2018-10-16T21:24:24.009Z,15.90
2018-10-16T21:28:32.497Z,16.00
2018-10-16T21:32:41.053Z,16.00
2018-10-16T21:36:49.328Z,16.00
2018-10-16T21:40:57.600Z,15.90
2018-10-16T21:45:06.512Z,15.80
2018-10-16T21:49:15.174Z,15.80
2018-10-16T21:57:31.820Z,15.70
2018-10-16T22:01:46.229Z,15.70
2018-10-16T22:05:54.492Z,15.70
2018-10-16T22:10:03.017Z,15.60
2018-10-16T22:18:19.893Z,15.60
2018-10-16T22:22:28.184Z,15.70
2018-10-16T22:26:36.426Z,15.70
2018-10-16T22:30:45.061Z,15.70
2018-10-16T22:34:53.379Z,15.80
2018-10-16T22:39:01.758Z,15.80
2018-10-16T22:43:10.282Z,15.80
2018-10-16T22:47:18.796Z,15.80
2018-10-16T22:51:27.097Z,15.80
2018-10-16T22:55:35.379Z,15.80
2018-10-16T22:59:44.153Z,15.80
2018-10-16T23:03:52.436Z,15.80
2018-10-16T23:08:00.804Z,15.90
2018-10-16T23:12:09.333Z,15.90
2018-10-16T23:16:17.740Z,15.90
2018-10-16T23:20:26.071Z,15.90
2018-10-16T23:24:34.335Z,15.90
2018-10-16T23:28:42.750Z,15.90
2018-10-16T23:32:51.052Z,15.80
2018-10-16T23:36:59.357Z,15.80
2018-10-16T23:41:07.663Z,15.80
2018-10-16T23:45:16.145Z,15.70
2018-10-16T23:49:24.441Z,15.60
2018-10-16T23:53:32.860Z,15.60
2018-10-16T23:57:41.821Z,15.50
